Weather observations for the past three days for
St. James Municipal Airport
Metric (Imperial)
Date Time (cdt) Wind (kph) Vis. (km) Weather Sky Cond. Temperature (ºC) Relative Humidity Wind Chill (°C) Heat Index (°C) Pressure Precipitation (cm)
Air Dwpt 6 hour altimeter (cm) sea level (mb) 1 hr 3 hr 6 hr
Max. Min.
09 16:35 N 37 G 48 16.09 Fair and Breezy CLR 17 -6 20% 75.82 0.0
09 16:15 N 39 G 52 16.09 Fair and Breezy CLR 18 -6 19% 75.82 0.0
09 15:55 N 37 G 52 16.09 Fair and Breezy CLR 17 -6 20% 75.79 0.0
09 15:35 N 37 G 52 16.09 Fair and Breezy CLR 17 -6 20% 75.79 0.0
09 15:15 N 43 G 59 16.09 Fair and Windy CLR 18 -5 21% 75.77 0.0
09 14:55 NW 43 G 54 16.09 Fair and Windy CLR 18 -5 21% 75.74 0.0
09 14:35 N 33 G 54 16.09 Fair and Breezy CLR 17 -4 24% 75.77 0.0
09 14:15 N 43 G 59 16.09 Fair and Windy CLR 17 -4 24% 75.74 0.0
09 13:55 N 39 G 48 16.09 Fair and Breezy CLR 17 -3 25% 75.74 0.0
09 13:35 N 44 G 56 16.09 Fair and Windy CLR 17 -3 25% 75.72 0.0
09 13:15 N 31 G 56 16.09 Fair CLR 17 -2 27% 75.72 0.0
09 12:35 NW 35 G 54 16.09 Fair and Breezy CLR 17 -2 27% 75.69 0.0
09 12:15 N 30 G 50 16.09 Fair CLR 16 -2 29% 75.69 0.0
09 11:55 NW 41 G 52 16.09 Fair and Breezy CLR 16 -2 29% 75.69 0.0
09 11:35 NW 37 G 57 16.09 Fair and Breezy CLR 15 -1 34% 75.69 0.0
09 11:15 N 39 16.09 A Few Clouds and Breezy FEW050 15 0 36% 75.67 0.0
09 10:55 N 41 G 52 16.09 Fair and Breezy CLR 14 2 44% 75.64 0.0
09 10:35 N 33 G 44 16.09 A Few Clouds and Breezy FEW039 15 3 45% 75.64 0.0
09 10:15 N 33 G 44 16.09 Partly Cloudy and Breezy SCT033 14 4 51% 75.64 0.0
09 09:55 N 28 G 41 16.09 Mostly Cloudy SCT030 BKN037 13 5 59% 75.62 0.0
09 09:35 N 35 G 46 16.09 A Few Clouds and Breezy FEW030 13 5 59% 75.59 0.0
09 09:15 N 37 G 48 16.09 A Few Clouds and Breezy FEW029 13 5 59% 75.57 0.0
09 08:55 N 41 16.09 A Few Clouds and Breezy FEW027 13 5 59% 75.54 0.0
09 08:35 NW 33 G 50 16.09 Partly Cloudy and Breezy SCT070 SCT080 13 6 63% 75.54 0.0
09 08:15 NW 37 G 48 16.09 Mostly Cloudy and Breezy BKN070 BKN085 12 7 72% 75.49 0.0
09 07:55 NW 31 G 44 16.09 Partly Cloudy SCT080 12 6 67% 75.46 0.0
09 07:35 NW 24 16.09 A Few Clouds FEW120 12 4 58% 75.44 0.0
09 07:15 W 17 16.09 Partly Cloudy SCT120 11 3 58% 75.44 0.0
09 06:55 W 15 16.09 Mostly Cloudy FEW080 BKN110 11 3 58% 75.39 0.0
09 06:35 W 17 16.09 Overcast FEW055 SCT065 OVC110 10 3 62% 8 75.41 0.0
09 06:15 NW 13 16.09 Overcast FEW065 BKN090 OVC110 10 2 58% 8 75.41 0.0
09 05:55 N 15 16.09 Mostly Cloudy BKN100 BKN120 10 2 58% 8 75.39 0.0
09 05:35 N 19 16.09 Partly Cloudy FEW100 SCT120 11 1 50% 75.36 0.0
09 05:15 NW 30 16.09 Fair CLR 11 -1 44% 75.36 0.0
09 04:55 NW 20 16.09 Partly Cloudy SCT110 11 -1 44% 75.34 0.0
09 04:35 NW 19 G 69 14.48 Overcast FEW003 OVC110 11 -1 44% 75.31 0.0
09 04:15 SW 17 16.09 Mostly Cloudy BKN110 9 -1 50% 7 75.21 0.0
09 03:55 SW 17 16.09 Fair CLR 9 -1 50% 7 75.21 0.0
09 03:35 SW 17 16.09 Fair CLR 8 -1 53% 6 75.21 0.0
09 03:15 SW 17 16.09 Fair CLR 8 -1 53% 6 75.18 0.0
09 02:55 SW 19 16.09 Fair CLR 8 -1 53% 5 75.18 0.0
09 02:35 SW 17 16.09 Fair CLR 7 -1 57% 4 75.21 0.0
09 02:15 SW 15 16.09 Fair CLR 7 -1 57% 5 75.23 0.0
09 01:55 SW 17 16.09 Fair CLR 7 -1 57% 4 75.26 0.0
09 01:35 SW 17 16.09 Fair CLR 7 -2 53% 4 75.26 0.0
09 01:15 SW 11 16.09 Fair CLR 7 -2 53% 5 75.29 0.0
09 00:55 SW 13 16.09 Fair CLR 8 -2 50% 6 75.31 0.0
09 00:35 SW 9 16.09 Fair CLR 8 -1 53% 7 75.31 0.0
09 00:15 W 9 16.09 Fair CLR 9 -2 46% 8 75.34 0.0
08 23:55 W 11 16.09 Fair CLR 10 -3 40% 9 75.34 0.0
08 23:35 NW 11 16.09 Fair CLR 10 -3 40% 9 75.36 0.0
08 23:15 NW 11 16.09 Fair CLR 11 -3 38% 75.36 0.0
08 22:55 NW 11 16.09 Fair CLR 11 -3 38% 75.36 0.0
08 22:35 NW 13 16.09 Fair CLR 14 -2 33% 75.34 0.0
08 22:15 NW 13 16.09 Fair CLR 14 -2 33% 75.34 0.0
08 21:55 NW 17 16.09 Fair CLR 16 -2 29% 75.34 0.0
08 21:35 NW 19 16.09 Fair CLR 16 -3 27% 75.31 0.0
08 21:15 NW 20 16.09 Fair CLR 17 -3 25% 75.29 0.0
08 20:55 NW 22 16.09 Fair CLR 18 -3 24% 75.26 0.0
08 20:35 NW 22 G 37 16.09 Fair CLR 19 -4 21% 75.26 0.0
08 20:15 NW 35 G 46 16.09 Fair and Breezy CLR 20 -3 21% 75.23 0.0
08 19:55 N 30 G 50 16.09 Fair CLR 21 -3 20% 75.21 0.0
08 19:35 NW 33 G 50 16.09 Fair and Breezy CLR 22 -2 20% 75.18 0.0
08 19:15 NW 30 G 43 16.09 Fair CLR 22 -1 22% 75.18 0.0
08 18:55 NW 35 G 50 16.09 Fair and Breezy CLR 23 -1 20% 75.18 0.0
08 18:35 NW 31 G 46 16.09 Partly Cloudy SCT110 23 -1 20% 75.18 0.0
08 18:15 N 35 G 44 16.09 Mostly Cloudy and Breezy BKN100 24 0 21% 25 75.18 0.0
08 17:55 NW 39 G 50 16.09 Mostly Cloudy and Breezy BKN100 24 -1 19% 24 75.16 0.0
08 17:35 NW 35 G 46 16.09 Partly Cloudy and Breezy SCT110 24 -1 19% 24 75.16 0.0
08 17:15 W 30 G 48 16.09 A Few Clouds FEW120 25 -1 18% 25 75.16 0.0
08 16:55 NW 24 G 41 16.09 A Few Clouds FEW110 24 -2 18% 24 75.16 0.0
08 16:35 NW 26 G 37 16.09 A Few Clouds FEW110 25 -2 17% 25 75.18 0.0
08 16:15 NW 22 G 31 16.09 Partly Cloudy SCT110 24 -2 18% 24 75.18 0.0
08 15:55 W 19 G 41 16.09 Partly Cloudy SCT110 24 -2 18% 24 75.21 0.0
08 15:35 NW 24 G 48 16.09 Partly Cloudy SCT110 24 -2 18% 24 75.23 0.0
08 15:15 W 31 16.09 Partly Cloudy SCT110 23 -3 17% 75.26 0.0
08 14:55 W 20 G 39 16.09 Partly Cloudy SCT110 24 -3 16% 24 75.29 0.0
08 14:35 W 19 G 41 16.09 A Few Clouds FEW110 24 -3 16% 24 75.31 0.0
08 14:15 NW 30 G 44 16.09 Partly Cloudy SCT110 23 -4 16% 75.31 0.0
08 13:55 W 30 G 44 16.09 Partly Cloudy SCT120 23 -4 16% 75.34 0.0
08 13:35 W 30 12.87 Unknown Precip SCT120 23 -4 16% 75.36 0.0
08 13:15 W 37 G 46 16.09 A Few Clouds and Breezy FEW120 23 -4 16% 75.36 0.0
08 12:55 W 17 G 39 16.09 Fair CLR 22 -5 16% 75.39 0.0
08 12:35 SW 24 G 39 16.09 Fair CLR 22 -5 16% 75.41 0.0
08 12:15 W 17 G 31 8.05 Fair with Haze CLR 21 -5 17% 75.44 0.0
08 11:55 W 24 G 35 16.09 Fair CLR 21 -5 17% 75.49 0.0
08 11:35 NW 22 G 37 12.87 A Few Clouds FEW095 21 -5 17% 75.51 0.0
08 11:15 NW 26 G 37 16.09 Mostly Cloudy BKN095 20 -5 18% 75.54 0.0
08 10:55 W 30 16.09 Overcast OVC095 20 -5 18% 75.54 0.0
08 10:35 W 30 G 41 16.09 Overcast OVC095 20 -5 18% 75.54 0.0
08 10:15 W 30 16.09 Mostly Cloudy BKN100 19 -5 19% 75.57 0.0
08 09:55 W 24 G 35 16.09 Partly Cloudy SCT095 SCT120 19 -4 21% 75.57 0.0
08 09:35 W 22 16.09 Overcast OVC095 17 -4 24% 75.59 0.0
08 09:15 SW 20 G 30 16.09 Mostly Cloudy BKN100 BKN120 17 -3 25% 75.59 0.0
08 08:55 SW 19 16.09 Mostly Cloudy SCT100 BKN120 15 -2 31% 75.62 0.0
08 08:35 SW 17 16.09 Mostly Cloudy SCT100 BKN120 14 -2 33% 75.62 0.0
08 08:15 SW 15 16.09 Mostly Cloudy BKN110 12 -2 38% 75.62 0.0
08 07:55 SW 15 16.09 Mostly Cloudy BKN110 11 -2 41% 75.62 0.0
08 07:35 SW 15 16.09 A Few Clouds FEW120 9 -2 46% 7 75.62 0.0
08 07:15 SW 13 16.09 Fair CLR 7 -2 53% 5 75.64 0.0
08 06:55 SW 13 16.09 Fair CLR 6 -3 53% 4 75.64 0.0
08 06:35 SW 13 16.09 Fair CLR 5 -3 57% 2 75.62 0.0
08 06:15 S 13 16.09 Fair CLR 5 -3 57% 2 75.62 0.0
08 05:55 SW 15 16.09 Fair CLR 5 -3 57% 2 75.62 0.0
08 05:35 SW 13 16.09 Fair CLR 5 -3 57% 2 75.64 0.0
08 05:15 S 13 16.09 Fair CLR 5 -3 57% 2 75.64 0.0
08 04:55 S 13 16.09 Fair CLR 5 -4 53% 2 75.64 0.0
08 04:35 S 17 16.09 Fair CLR 7 -5 43% 4 75.64 0.0
08 04:15 SW 9 16.09 Fair CLR 4 -4 56% 2 75.67 0.0
08 03:55 Calm 16.09 Fair CLR 6 -4 49% 75.67 0.0
08 03:35 S 9 16.09 Fair CLR 5 -3 57% 3 75.67 0.0
08 03:15 S 9 16.09 Fair CLR 6 -4 49% 4 75.67 0.0
08 02:55 S 9 16.09 Fair CLR 5 -4 53% 3 75.67 0.0
08 02:35 S 9 16.09 Fair CLR 5 -3 57% 3 75.69 0.0
08 02:15 S 9 16.09 Fair CLR 4 -4 56% 2 75.69 0.0
08 01:55 S 9 16.09 Fair CLR 4 -4 56% 2 75.72 0.0
08 01:35 S 9 16.09 Fair CLR 4 -4 56% 2 75.72 0.0
08 01:15 S 7 16.09 Fair CLR 5 -4 53% 4 75.72 0.0
08 00:55 S 7 16.09 Fair CLR 5 -4 53% 4 75.74 0.0
08 00:35 S 7 16.09 Fair CLR 6 -4 49% 5 75.74 0.0
08 00:15 S 7 16.09 Fair CLR 5 -3 57% 4 75.74 0.0
07 23:55 S 7 16.09 Fair CLR 7 -4 46% 6 75.74 0.0
07 23:35 Calm 16.09 Fair CLR 6 -5 46% 75.77 0.0
07 23:15 Calm 16.09 Fair CLR 7 -5 43% 75.77 0.0
07 22:55 Calm 16.09 Fair CLR 9 -5 37% 75.77 0.0
07 22:35 Calm 16.09 Fair CLR 9 -4 40% 75.77 0.0
07 22:15 Calm 16.09 Fair CLR 9 -4 40% 75.74 0.0
07 21:55 Calm 16.09 Fair CLR 10 -6 32% 75.74 0.0
07 21:35 N 9 16.09 Fair CLR 11 -6 30% 75.74 0.0
07 21:15 N 11 16.09 Fair CLR 11 -5 32% 75.72 0.0
07 20:55 N 11 16.09 Fair CLR 12 -4 33% 75.72 0.0
07 20:35 N 11 16.09 Fair CLR 12 -4 33% 75.69 0.0
07 20:15 NW 17 16.09 Fair CLR 14 -6 25% 75.67 0.0
07 19:55 NW 13 16.09 Fair CLR 16 -6 22% 75.67 0.0
07 19:35 NW 17 16.09 Fair CLR 16 -6 22% 75.64 0.0
07 19:15 NW 24 16.09 Fair CLR 17 -6 20% 75.64 0.0
07 18:55 NW 22 14.48 Fair CLR 17 -6 20% 75.67 0.0
07 18:35 W 15 G 28 16.09 Fair CLR 17 -7 19% 75.67 0.0
07 18:15 NW 6 G 28 16.09 Fair CLR 17 -7 19% 75.69 0.0
07 17:55 NW 22 G 35 16.09 Fair CLR 17 -7 19% 75.67 0.0
07 17:35 N 11 G 24 16.09 Fair CLR 17 -7 19% 75.69 0.0
07 17:15 NW 17 G 37 16.09 Fair CLR 17 -7 19% 75.69 0.0
07 16:55 NW 22 16.09 Fair CLR 17 -7 19% 75.72 0.0
07 16:35 N 19 G 35 16.09 Fair CLR 17 -7 19% 75.72 0.0
07 16:15 SW 13 G 24 16.09 Fair CLR 16 -7 20% 75.74 0.0
07 15:55 W 24 16.09 Fair CLR 16 -7 20% 75.74 0.0
07 15:35 NW 28 G 39 16.09 Fair CLR 16 -7 20% 75.74 0.0
07 15:15 NW 24 G 33 16.09 Fair CLR 17 -7 19% 75.77 0.0
07 14:55 NW 15 G 33 16.09 Fair CLR 16 -7 20% 75.79 0.0
07 14:35 NW 17 G 37 16.09 Fair CLR 15 -7 21% 75.79 0.0
07 14:15 NW 20 G 31 16.09 Fair CLR 15 -7 21% 75.79 0.0
07 13:55 W 11 G 20 14.48 Fair CLR 15 -6 23% 75.82 0.0
07 13:35 N 22 G 33 16.09 Fair CLR 15 -6 23% 75.82 0.0
07 13:15 N 13 G 33 16.09 Fair CLR 14 -6 25% 75.84 0.0
07 12:55 NW 11 G 22 16.09 Fair CLR 13 -6 26% 75.84 0.0
07 12:35 Calm 16.09 Fair CLR 13 -6 26% 75.87 0.0
07 12:15 N 9 16.09 Fair CLR 12 -6 28% 75.87 0.0
07 11:55 Vrbl 7 G 22 16.09 Fair CLR 13 -5 28% 75.9 0.0
07 11:35 NE 11 G 22 16.09 Fair CLR 12 -5 30% 75.9 0.0
07 11:15 Calm 16.09 Fair CLR 11 -5 32% 75.9 0.0
07 10:55 Vrbl 7 G 22 16.09 Fair CLR 11 -4 35% 75.9 0.0
07 10:35 Vrbl 7 G 22 16.09 Fair CLR 11 -4 35% 75.92 0.0
07 10:15 Vrbl 9 G 24 16.09 Fair CLR 10 -2 43% 9 75.9 0.0
07 09:55 Vrbl 11 G 22 16.09 Fair CLR 10 -2 43% 9 75.9 0.0
07 09:35 N 7 G 19 16.09 Fair CLR 10 -2 43% 9 75.9 0.0
07 09:15 E 9 16.09 Fair CLR 10 -3 40% 9 75.92 0.0
07 08:55 E 9 16.09 Fair CLR 9 -3 43% 8 75.92 0.0
07 08:35 NE 13 16.09 Fair CLR 8 -3 46% 6 75.92 0.0
07 08:15 E 13 16.09 Fair CLR 8 -3 46% 6 75.92 0.0
07 07:55 E 9 12.87 Fair CLR 6 -2 57% 4 75.92 0.0
07 07:35 E 6 14.48 Fair CLR 4 -1 70% 75.95 0.0
07 07:15 Calm 16.09 Fair CLR 3 -1 75% 75.95 0.0
07 06:55 E 7 16.09 Fair CLR 1 -2 81% -1 75.95 0.0
07 06:35 NE 7 16.09 Partly Cloudy SCT090 1 -3 75% -1 75.95 0.0
07 06:15 Calm 16.09 Overcast SCT030 BKN050 OVC090 0 -2 87% 75.97 0.0
07 05:55 Calm 16.09 Overcast SCT040 BKN065 OVC075 0 -2 87% 75.97 0.0
07 05:35 N 6 16.09 Overcast FEW060 BKN075 OVC090 0 -3 80% 76 0.0
07 05:15 NE 7 16.09 Overcast FEW060 BKN070 OVC080 0 -3 80% -2 75.95 0.0
07 04:55 NE 11 16.09 Overcast SCT060 BKN075 OVC085 0 -2 87% -3 75.97 0.0
07 04:35 NE 9 16.09 Overcast OVC075 0 -2 87% -3 76 0.0
07 04:15 E 6 16.09 Mostly Cloudy BKN075 BKN090 0 -2 87% 75.97 0.0
07 03:55 Calm 16.09 Partly Cloudy SCT090 0 -2 87% 76 0.0
07 03:35 E 7 16.09 Partly Cloudy SCT075 SCT110 1 -2 81% -1 75.97 0.0
07 03:15 Calm 16.09 Overcast OVC075 1 -1 87% 76 0.0
07 02:55 N 7 16.09 Overcast OVC075 1 -1 87% -1 76.02 0.0
07 02:35 Calm 16.09 Overcast BKN075 OVC085 1 -2 81% 76.02 0.0
07 02:15 Calm 16.09 Overcast OVC075 2 -1 81% 76.02 0.0
07 01:55 Calm 16.09 Overcast OVC070 3 -2 70% 76.05 0.0
07 01:35 Calm 16.09 Overcast OVC075 2 -1 81% 76.07 0.0
07 01:15 Calm 16.09 Overcast OVC075 3 -1 75% 76.07 0.0
07 00:55 Calm 16.09 Overcast OVC075 3 -2 70% 76.1 0.0
07 00:35 Calm 16.09 Overcast OVC075 3 -4 60% 76.07 0.0
07 00:15 Calm 16.09 Overcast OVC075 3 -3 65% 76.07 0.0
06 23:55 Calm 16.09 Overcast OVC075 4 -3 61% 76.07 0.0
06 23:35 Calm 16.09 Overcast OVC075 3 -4 60% 76.1 0.0
06 23:15 E 7 16.09 Overcast BKN075 OVC090 3 -3 65% 1 76.1 0.0
06 22:55 E 7 16.09 Mostly Cloudy SCT075 BKN090 3 -4 60% 1 76.1 0.0
06 22:35 E 11 16.09 A Few Clouds FEW100 4 -4 56% 2 76.1 0.0
06 22:15 E 7 16.09 Fair CLR 5 -4 53% 4 76.12 0.0
06 21:55 E 7 16.09 Fair CLR 5 -4 53% 4 76.12 0.0
06 21:35 NE 9 16.09 Fair CLR 5 -4 53% 3 76.12 0.0
06 21:15 NE 9 16.09 Partly Cloudy SCT070 SCT080 6 -4 49% 4 76.1 0.0
06 20:55 NE 7 14.48 Mostly Cloudy BKN070 BKN075 6 -4 49% 5 76.1 0.0
06 20:35 NE 7 9.66 Overcast with Haze OVC070 7 -4 46% 6 76.1 0.0
06 20:15 NE 11 16.09 Overcast OVC075 8 -4 43% 6 76.1 0.0
06 19:55 N 7 16.09 Overcast BKN070 OVC080 8 -3 46% 7 76.1 0.0
06 19:35 N 13 16.09 Overcast BKN070 OVC085 9 -3 43% 7 76.1 0.0
06 19:15 N 20 16.09 Mostly Cloudy BKN070 BKN085 10 -4 37% 8 76.1 0.0
06 18:55 N 17 G 26 16.09 Partly Cloudy SCT070 SCT080 10 -4 37% 8 76.1 0.0
06 18:35 NW 19 G 33 16.09 Partly Cloudy SCT070 10 -5 35% 8 76.12 0.0
06 18:15 NW 19 G 33 16.09 Mostly Cloudy BKN070 10 -5 35% 8 76.12 0.0
06 17:55 N 17 G 26 16.09 Mostly Cloudy BKN070 10 -5 35% 8 76.15 0.0
06 17:35 NW 22 16.09 Mostly Cloudy BKN065 BKN080 10 -4 37% 7 76.15 0.0
06 17:15 NW 30 16.09 Mostly Cloudy BKN070 BKN080 11 -3 38% 76.15 0.0
06 16:55 NW 20 G 37 14.48 Mostly Cloudy BKN060 10 -3 40% 8 76.17 0.0
Date Time (cdt) Wind (kph) Vis. (km) Weather Sky Cond. Air Dwpt Max. Min. Relative Humidity Wind Chill (°C) Heat Index (°C) altimeter (cm) sea level (mb) 1 hr 3 hr 6 hr
6 hour
Temperature (ºC) Pressure Precipitation (cm)